Time;durP1;ratioP1;P1;durP2;ratioP2;P2;SDS_P1;SDS_P2;PMS_P1;PMS_P2;Temp;Humidity;BMP_temperature;BMP_pressure;BME280_temperature;BME280_humidity;BME280_pressure;Samples;Min_cycle;Max_cycle;Signal;HPM_P1;HPM_P2
2022/12/26 00:02:55;;;;;;;38.10;24.30;;;;;;;6.48;68.91;99200.39;233467;1203;138390;-65
2022/12/26 00:16:20;;;;;;;39.50;24.10;;;;;;;6.67;68.63;99197.24;233485;1205;138870;-62
2022/12/26 00:31:03;;;;;;;;;;;;;;;;;;;;;
2022/12/26 00:45:34;;;;;;;;;;;;;;;;;;;;;
2022/12/26 00:52:26;;;;;;;;;;;;;;;;;;;;;
2022/12/26 01:13:22;;;;;;;;;;;;;;;;;;;;;
2022/12/26 01:28:37;;;;;;;;;;;;;;;;;;;;;
2022/12/26 02:00:50;;;;;;;28.10;17.80;;;;;;;6.71;67.38;99111.59;231708;1216;635808;-64
2022/12/26 02:07:26;;;;;;;31.00;16.90;;;;;;;6.67;67.56;99112.98;233693;1206;137719;-65
2022/12/26 02:13:23;;;;;;;28.80;17.90;;;;;;;6.65;67.22;99099.84;234500;1196;138718;-67
2022/12/26 02:19:51;;;;;;;;;;;;;;;;;;;;;
2022/12/26 02:25:19;;;;;;;25.90;15.80;;;;;;;6.66;67.43;99073.89;234874;1195;138230;-66
2022/12/26 02:31:56;;;;;;;27.20;15.40;;;;;;;6.73;67.43;99075.34;234835;1195;139703;-67
2022/12/26 02:38:33;;;;;;;;;;;;;;;;;;;;;
2022/12/26 03:14:30;;;;;;;;;;;;;;;;;;;;;
2022/12/26 03:20:31;;;;;;;25.10;15.00;;;;;;;6.84;66.63;98993.00;234953;1195;140738;-66
2022/12/26 03:32:41;;;;;;;22.10;14.00;;;;;;;6.68;67.07;98991.29;234776;1195;138559;-68
2022/12/26 03:39:06;;;;;;;21.60;13.20;;;;;;;6.61;67.25;98981.04;234887;1195;138152;-68
2022/12/26 04:47:22;;;;;;;21.00;13.00;;;;;;;5.88;67.87;98922.19;234692;1196;141175;-67
2022/12/26 04:53:36;;;;;;;22.00;13.60;;;;;;;5.89;67.96;98922.10;234822;1196;140461;-65
2022/12/26 04:59:47;;;;;;;;;;;;;;;;;;;;;
2022/12/26 05:12:36;;;;;;;25.00;15.40;;;;;;;5.95;67.53;98907.28;234854;1195;138876;-66
2022/12/26 05:31:29;;;;;;;27.10;15.40;;;;;;;5.82;67.83;98914.16;234782;1195;229049;-67
2022/12/26 05:37:34;;;;;;;23.50;13.40;;;;;;;5.78;67.96;98916.27;234630;1195;138719;-65
2022/12/26 05:43:20;;;;;;;56.50;36.20;;;;;;;5.73;68.49;98923.21;234735;1195;139732;-66
2022/12/26 05:49:19;;;;;;;23.10;14.20;;;;;;;5.76;68.52;98925.71;234796;1198;138941;-66
2022/12/26 05:55:05;;;;;;;;;;;;;;;;;;;;;
2022/12/26 06:00:51;;;;;;;;;;;;;;;;;;;;;
2022/12/26 06:06:47;;;;;;;24.10;14.00;;;;;;;5.64;68.03;98931.34;234788;1195;139606;-66
2022/12/26 06:12:37;;;;;;;133.90;80.90;;;;;;;5.71;68.34;98934.88;234578;1195;140560;-66
2022/12/26 06:19:01;;;;;;;22.10;13.90;;;;;;;5.82;68.57;98945.34;234719;1195;139760;-66
2022/12/26 06:25:22;;;;;;;;;;;;;;;;;;;;;
2022/12/26 06:30:54;;;;;;;26.30;14.80;;;;;;;5.84;68.49;98949.11;234667;1195;138873;-68
2022/12/26 06:37:06;;;;;;;;;;;;;;;;;;;;;
2022/12/26 06:43:23;;;;;;;25.60;15.30;;;;;;;6.01;68.03;98933.94;234774;1196;138812;-68
2022/12/26 06:49:37;;;;;;;25.00;14.60;;;;;;;5.89;67.49;98940.27;234768;1198;138631;-67
2022/12/26 06:55:33;;;;;;;;;;;;;;;;;;;;;
2022/12/26 07:01:42;;;;;;;27.30;15.70;;;;;;;5.94;67.96;98963.48;234636;1195;138947;-68
2022/12/26 07:07:56;;;;;;;30.40;17.50;;;;;;;6.14;68.32;98973.52;234771;1195;139206;-66
2022/12/26 07:14:22;;;;;;;109.60;70.50;;;;;;;6.52;68.71;98972.14;234601;1195;139238;-66
2022/12/26 07:20:36;;;;;;;25.90;16.50;;;;;;;6.79;67.68;98947.38;234585;1196;139060;-65
2022/12/26 07:27:06;;;;;;;27.10;16.00;;;;;;;6.85;67.56;98965.59;234656;1196;138576;-66
2022/12/26 07:34:01;;;;;;;;;;;;;;;;;;;;;
2022/12/26 07:40:55;;;;;;;28.80;17.20;;;;;;;7.10;66.95;98970.95;234371;1196;138909;-67
2022/12/26 07:48:15;;;;;;;;;;;;;;;;;;;;;
2022/12/26 07:55:22;;;;;;;;;;;;;;;;;;;;;
2022/12/26 08:29:52;;;;;;;;;;;;;;;;;;;;;
2022/12/26 08:51:51;;;;;;;;;;;;;;;;;;;;;
2022/12/26 09:04:54;;;;;;;25.00;15.70;;;;;;;8.17;67.68;99001.86;234187;1196;139596;-73
2022/12/26 09:23:36;;;;;;;26.30;15.40;;;;;;;8.62;67.79;98977.88;234790;1196;139355;-69
2022/12/26 09:50:41;;;;;;;;;;;;;;;9.31;67.34;98974.73;234535;1196;139590;-69
2022/12/26 09:57:31;;;;;;;48.20;31.20;;;;;;;9.43;68.27;98971.86;234331;1199;125302;-64
2022/12/26 10:03:36;;;;;;;93.80;56.30;;;;;;;9.56;67.97;98967.91;234419;1197;139443;-69
2022/12/26 10:09:41;;;;;;;;;;;;;;;;;;;;;
2022/12/26 10:16:20;;;;;;;26.00;17.20;;;;;;;9.89;67.05;98975.70;234473;1196;139621;-66
2022/12/26 10:22:57;;;;;;;81.20;53.40;;;;;;;9.98;66.98;98975.91;234209;1199;139325;-67
2022/12/26 10:29:08;;;;;;;;;;;;;;;;;;;;;
2022/12/26 10:35:44;;;;;;;29.60;18.40;;;;;;;9.89;66.14;98959.20;234606;1196;139861;-68
2022/12/26 10:41:04;;;;;;;25.50;17.60;;;;;;;9.83;66.50;98955.37;234416;1195;138709;-69
2022/12/26 10:47:13;;;;;;;;;;;;;;;;;;;;;
2022/12/26 10:53:10;;;;;;;27.70;17.70;;;;;;;9.86;67.29;98937.28;234673;1196;139476;-68
2022/12/26 10:59:14;;;;;;;27.60;18.10;;;;;;;9.93;67.50;98937.52;234837;1196;139479;-69
2022/12/26 11:06:18;;;;;;;25.60;16.70;;;;;;;10.04;67.44;98936.89;234796;1195;139592;-67
2022/12/26 11:13:47;;;;;;;27.60;17.60;;;;;;;10.25;66.92;98912.02;234657;1196;140517;-71
2022/12/26 11:19:26;;;;;;;69.40;44.70;;;;;;;10.49;67.03;98897.20;234835;1195;139706;-71
2022/12/26 11:25:40;;;;;;;;;;;;;;;;;;;;;
2022/12/26 11:49:31;;;;;;;24.40;17.30;;;;;;;11.08;67.49;98904.70;233582;1207;138359;-68
2022/12/26 11:56:02;;;;;;;29.90;20.00;;;;;;;11.29;65.75;98896.55;234387;1200;138616;-68
2022/12/26 12:02:06;;;;;;;24.30;16.80;;;;;;;11.31;65.13;98893.61;233916;1204;138327;-68
2022/12/26 12:08:22;;;;;;;23.70;17.20;;;;;;;11.37;64.74;98878.13;234115;1199;138700;-71
2022/12/26 12:14:38;;;;;;;27.80;17.90;;;;;;;11.45;64.36;98883.42;234763;1199;137982;-67
2022/12/26 12:20:34;;;;;;;26.80;17.30;;;;;;;11.56;64.50;98873.20;234505;1196;138530;-67
2022/12/26 12:26:26;;;;;;;;;;;;;;;;;;;;;
2022/12/26 12:32:33;;;;;;;22.60;13.90;;;;;;;11.70;64.21;98860.20;234414;1200;138815;-67
2022/12/26 12:38:28;;;;;;;;;;;;;;;;;;;;;
2022/12/26 12:48:20;;;;;;;20.70;14.50;;;;;;;11.95;63.79;98840.98;232100;1212;636002;-68
2022/12/26 12:54:36;;;;;;;24.50;16.60;;;;;;;12.15;63.29;98846.55;233425;1204;139426;-65
2022/12/26 13:00:35;;;;;;;47.80;31.00;;;;;;;12.22;64.78;98851.73;234404;1200;138925;-66
2022/12/26 13:07:13;;;;;;;;;;;;;;;;;;;;;
2022/12/26 13:27:44;;;;;;;28.30;18.30;;;;;;;11.94;63.08;98836.86;234187;1201;139028;-70
2022/12/26 13:40:32;;;;;;;;;;;;;;;;;;;;;
2022/12/26 13:45:59;;;;;;;30.00;19.40;;;;;;;11.70;63.63;98865.85;234006;1201;138414;-65
2022/12/26 13:53:24;;;;;;;29.40;18.70;;;;;;;11.65;63.74;98868.89;234380;1199;138663;-66
2022/12/26 13:58:28;;;;;;;34.60;20.10;;;;;;;11.55;63.94;98860.48;233954;1201;138776;-67
2022/12/26 14:11:14;;;;;;;32.80;18.90;;;;;;;11.36;64.53;98862.38;233701;1202;139574;-65
2022/12/26 14:30:48;;;;;;;;;;;;;;;;;;;;;
2022/12/26 14:36:47;;;;;;;27.60;17.50;;;;;;;11.77;64.55;98861.64;233657;1207;139112;-65
2022/12/26 14:48:03;;;;;;;;;;;;;;;;;;;;;
2022/12/26 14:53:57;;;;;;;;;;;;;;;;;;;;;
2022/12/26 15:07:47;;;;;;;116.50;74.90;;;;;;;10.67;65.83;98877.97;233506;1208;138411;-67
2022/12/26 15:14:15;;;;;;;26.00;18.30;;;;;;;10.54;65.81;98881.63;233403;1205;139786;-68
2022/12/26 15:20:12;;;;;;;27.30;18.80;;;;;;;10.46;65.80;98887.28;233653;1204;139322;-67
2022/12/26 15:27:26;;;;;;;27.20;17.70;;;;;;;10.42;66.31;98875.45;233131;1207;138453;-65
2022/12/26 15:41:12;;;;;;;;;;;;;;;;;;;;;
2022/12/26 15:47:24;;;;;;;;;;;;;;;;;;;;;
2022/12/26 16:00:53;;;;;;;;;;;;;;;;;;;;;
2022/12/26 16:15:07;;;;;;;27.00;14.00;;;;;;;11.29;65.75;98839.06;234017;1201;139547;-67
2022/12/26 16:26:58;;;;;;;;;;;;;;;;;;;;;
2022/12/26 16:33:47;;;;;;;25.60;17.50;;;;;;;10.89;66.18;98834.95;234109;1199;138506;-67
2022/12/26 16:40:20;;;;;;;;;;;;;;;;;;;;;
2022/12/26 16:46:39;;;;;;;29.40;18.60;;;;;;;10.42;66.69;98835.74;233887;1204;138415;-66
2022/12/26 16:52:06;;;;;;;;;;;;;;;;;;;;;
2022/12/26 16:59:10;;;;;;;31.40;19.60;;;;;;;10.18;67.15;98845.57;233820;1203;138952;-66
2022/12/26 17:05:28;;;;;;;;;;;;;;;;;;;;;
2022/12/26 17:12:36;;;;;;;28.70;17.20;;;;;;;10.07;68.07;98864.86;233779;1203;140720;-65
2022/12/26 17:32:10;;;;;;;27.70;16.50;;;;;;;10.60;69.21;98912.61;234036;1201;140025;-66
2022/12/26 17:52:56;;;;;;;21.10;13.30;;;;;;;10.85;70.88;98871.99;233955;1202;162138;-64
2022/12/26 17:57:56;;;;;;;19.50;12.20;;;;;;;10.94;70.97;98827.76;233715;1203;139466;-66
2022/12/26 18:03:17;;;;;;;17.80;12.60;;;;;;;10.96;70.78;98820.46;233873;1202;139175;-67
2022/12/26 18:13:01;;;;;;;22.70;13.70;;;;;;;10.91;70.86;98800.60;231983;1212;636194;-68
2022/12/26 18:19:40;;;;;;;21.30;12.80;;;;;;;10.90;71.41;98804.59;234221;1199;140338;-70
2022/12/26 18:26:07;;;;;;;18.30;12.50;;;;;;;10.97;71.01;98805.90;234375;1200;138656;-66
2022/12/26 18:31:39;;;;;;;;;;;;;;;;;;;;;
2022/12/26 18:37:48;;;;;;;19.10;12.10;;;;;;;10.96;71.08;98824.06;234310;1200;139264;-66
2022/12/26 18:44:19;;;;;;;18.30;11.50;;;;;;;10.82;71.21;98861.02;234210;1202;138833;-66
2022/12/26 18:49:34;;;;;;;102.10;84.50;;;;;;;10.74;71.75;98860.84;234357;1202;139888;-66
2022/12/26 19:02:05;;;;;;;;;;;;;;;;;;;;;
2022/12/26 19:08:25;;;;;;;16.20;10.80;;;;;;;10.89;71.11;98858.58;234198;1201;139201;-67
2022/12/26 19:14:07;;;;;;;146.10;100.20;;;;;;;10.77;71.39;98854.60;234017;1202;139255;-65
2022/12/26 19:26:37;;;;;;;17.70;11.40;;;;;;;10.81;71.70;98859.80;233810;1202;140829;-67
2022/12/26 19:32:02;;;;;;;16.30;11.10;;;;;;;10.81;71.77;98866.20;233981;1201;139127;-69
2022/12/26 19:37:13;;;;;;;16.50;11.40;;;;;;;10.79;71.51;98884.06;234090;1200;139354;-68
2022/12/26 19:55:50;;;;;;;;;;;;;;;10.77;71.23;98906.23;234062;1202;139054;-68
2022/12/26 20:01:46;;;;;;;15.00;10.60;;;;;;;10.76;71.09;98900.27;233921;1202;125424;-69
2022/12/26 20:07:57;;;;;;;;;;;;;;;;;;;;;
2022/12/26 20:14:13;;;;;;;13.10;8.60;;;;;;;10.87;71.15;98902.23;233663;1202;139491;-69
2022/12/26 20:20:12;;;;;;;14.70;8.10;;;;;;;11.03;70.56;98908.25;234443;1199;139193;-68
2022/12/26 20:27:05;;;;;;;12.90;7.80;;;;;;;11.09;70.30;98905.02;234477;1196;138692;-69
2022/12/26 20:33:22;;;;;;;;;;;;;;;;;;;;;
2022/12/26 20:46:01;;;;;;;;;;;;;;;;;;;;;
2022/12/26 20:52:20;;;;;;;13.50;7.50;;;;;;;11.10;69.63;98924.64;234527;1196;139103;-70
2022/12/26 21:04:47;;;;;;;;;;;;;;;;;;;;;
2022/12/26 21:10:35;;;;;;;15.60;9.70;;;;;;;11.04;69.09;98933.24;234244;1197;139605;-68
2022/12/26 21:16:31;;;;;;;;;;;;;;;10.98;69.27;98940.34;234387;1199;139399;-71
2022/12/26 21:22:03;;;;;;;11.80;7.60;;;;;;;10.92;69.17;98950.00;234551;1196;126890;-72
2022/12/26 21:27:43;;;;;;;13.30;7.40;;;;;;;10.97;69.43;98952.15;234473;1196;140369;-71
2022/12/26 21:33:37;;;;;;;;;;;;;;;;;;;;;
2022/12/26 21:39:20;;;;;;;12.20;7.80;;;;;;;10.99;69.12;98956.25;234585;1199;139853;-71
2022/12/26 21:45:03;;;;;;;;;;;;;;;;;;;;;
2022/12/26 21:51:38;;;;;;;;;;;;;;;;;;;;;
2022/12/26 21:57:22;;;;;;;;;;;;;;;;;;;;;
2022/12/26 22:16:35;;;;;;;10.90;7.30;;;;;;;10.73;70.42;98949.94;234637;1196;138880;-68
2022/12/26 22:23:24;;;;;;;9.90;6.50;;;;;;;10.69;70.57;98945.76;234524;1196;139312;-69
2022/12/26 22:28:50;;;;;;;9.20;6.30;;;;;;;10.67;71.20;98944.32;234461;1196;140381;-68
2022/12/26 22:49:32;;;;;;;;;;;;;;;;;;;;;
2022/12/26 23:08:26;;;;;;;10.80;6.40;;;;;;;10.77;71.24;98948.11;234363;1196;139115;-71
2022/12/26 23:13:55;;;;;;;9.60;6.30;;;;;;;10.76;71.27;98947.44;234460;1198;139357;-71
2022/12/26 23:32:49;;;;;;;;;;;;;;;;;;;;;
2022/12/26 23:39:22;;;;;;;13.30;8.40;;;;;;;10.86;70.73;98917.17;234458;1197;139885;-68
2022/12/26 23:46:35;;;;;;;;;;;;;;;;;;;;;
2022/12/26 23:53:02;;;;;;;11.60;7.50;;;;;;;10.83;70.33;98894.81;231618;1203;2663160;-68
2022/12/26 23:58:50;;;;;;;;;;;;;;;;;;;;;
